Time;durP1;ratioP1;P1;durP2;ratioP2;P2;SDS_P1;SDS_P2;PMS_P1;PMS_P2;Temp;Humidity;BMP_temperature;BMP_pressure;BME280_temperature;BME280_humidity;BME280_pressure;Samples;Min_cycle;Max_cycle;Signal;HPM_P1;HPM_P2
2021/12/08 00:01:20;;;;;;;0.60;0.60;;;2.80;99.90;;;;;;5094781;28;20079;-80
2021/12/08 00:03:47;;;;;;;0.60;0.60;;;2.80;99.90;;;;;;5094819;28;20048;-77
2021/12/08 00:06:12;;;;;;;1.35;1.25;;;2.80;99.90;;;;;;5094764;28;20044;-77
2021/12/08 00:08:38;;;;;;;0.60;0.60;;;2.80;99.90;;;;;;5095240;28;20476;-77
2021/12/08 00:13:50;;;;;;;1.27;1.23;;;2.80;99.90;;;;;;5094597;28;20055;-79
2021/12/08 00:16:16;;;;;;;0.60;0.60;;;2.80;99.90;;;;;;5094449;28;20129;-78
2021/12/08 00:18:47;;;;;;;0.60;0.60;;;2.80;99.90;;;;;;5094216;28;20055;-78
2021/12/08 00:21:15;;;;;;;0.60;0.60;;;2.80;99.90;;;;;;5094515;28;20372;-79
2021/12/08 00:23:41;;;;;;;0.60;0.60;;;3.60;99.90;;;;;;5094501;28;20047;-79
2021/12/08 00:26:07;;;;;;;0.60;0.60;;;2.80;99.90;;;;;;5094442;28;20052;-81
2021/12/08 00:28:33;;;;;;;0.60;0.60;;;2.80;99.90;;;;;;5094379;28;20081;-78
2021/12/08 00:31:01;;;;;;;0.70;0.70;;;2.90;99.90;;;;;;5094431;28;20044;-74
2021/12/08 00:33:28;;;;;;;0.70;0.70;;;2.90;99.90;;;;;;5094194;28;20051;-77
2021/12/08 00:35:54;;;;;;;0.70;0.70;;;3.00;99.90;;;;;;5094728;28;20051;-76
2021/12/08 00:38:20;;;;;;;0.60;0.60;;;2.90;99.90;;;;;;5094266;28;20072;-79
2021/12/08 00:40:48;;;;;;;0.60;0.60;;;2.90;99.90;;;;;;5092880;28;20044;-81
2021/12/08 00:43:15;;;;;;;0.60;0.60;;;2.90;99.90;;;;;;5094119;28;20282;-76
2021/12/08 00:45:41;;;;;;;0.70;0.70;;;2.90;99.90;;;;;;5094183;28;20040;-75
2021/12/08 00:48:06;;;;;;;0.60;0.60;;;3.00;99.90;;;;;;5094115;28;20078;-79
2021/12/08 00:50:35;;;;;;;0.60;0.60;;;3.00;99.90;;;;;;5094006;28;20044;-78
2021/12/08 00:53:02;;;;;;;0.77;0.77;;;3.00;99.90;;;;;;5094113;28;20039;-79
2021/12/08 00:55:28;;;;;;;0.60;0.60;;;3.00;99.90;;;;;;5094028;28;20088;-80
2021/12/08 00:57:54;;;;;;;0.60;0.60;;;3.00;99.90;;;;;;5093971;28;20044;-77
2021/12/08 01:00:24;;;;;;;0.60;0.60;;;3.40;99.90;;;;;;5075971;28;20539;-78
2021/12/08 01:02:50;;;;;;;0.60;0.60;;;3.00;99.90;;;;;;5093912;28;20047;-78
2021/12/08 01:05:22;;;;;;;0.70;0.70;;;2.80;99.90;;;;;;5093948;28;20128;-76
2021/12/08 01:07:48;;;;;;;0.60;0.60;;;3.00;99.90;;;;;;5094199;28;20119;-76
2021/12/08 01:10:32;;;;;;;0.60;0.60;;;3.00;99.90;;;;;;5093829;28;20123;-80
2021/12/08 01:12:59;;;;;;;0.60;0.60;;;3.00;99.90;;;;;;5092679;28;20458;-78
2021/12/08 01:15:28;;;;;;;0.60;0.60;;;3.00;99.90;;;;;;5093807;28;20055;-79
2021/12/08 01:17:55;;;;;;;0.60;0.60;;;3.00;99.90;;;;;;5093410;28;20466;-78
2021/12/08 01:20:21;;;;;;;0.60;0.60;;;3.00;99.90;;;;;;5093712;28;20040;-76
2021/12/08 01:22:47;;;;;;;0.60;0.60;;;3.10;99.90;;;;;;5093718;28;20126;-75
2021/12/08 01:25:12;;;;;;;0.65;0.65;;;3.10;99.90;;;;;;5093617;28;20083;-76
2021/12/08 01:27:38;;;;;;;0.60;0.60;;;;;;;;;;5094032;28;20043;-75
2021/12/08 01:30:07;;;;;;;0.60;0.60;;;3.00;99.90;;;;;;5092718;28;20052;-78
2021/12/08 01:32:33;;;;;;;0.75;0.75;;;3.10;99.90;;;;;;5093295;28;20480;-75
2021/12/08 01:34:59;;;;;;;0.60;0.60;;;3.00;99.90;;;;;;5093900;28;20036;-77
2021/12/08 01:37:25;;;;;;;0.60;0.60;;;3.10;99.90;;;;;;5093790;28;20131;-76
2021/12/08 01:39:51;;;;;;;0.98;0.98;;;3.00;99.90;;;;;;5093523;28;20430;-80
2021/12/08 01:42:25;;;;;;;0.60;0.60;;;3.10;99.90;;;;;;5092525;28;20040;-81
2021/12/08 01:47:36;;;;;;;0.60;0.60;;;3.10;99.90;;;;;;5093776;28;20056;-77
2021/12/08 01:50:02;;;;;;;0.60;0.60;;;3.10;99.90;;;;;;5093176;28;20123;-78
2021/12/08 01:52:28;;;;;;;0.60;0.60;;;3.00;99.90;;;;;;5094609;28;20080;-83
2021/12/08 01:54:54;;;;;;;0.60;0.60;;;3.00;99.90;;;;;;5097304;28;20496;-76
2021/12/08 01:57:20;;;;;;;0.60;0.60;;;3.00;99.90;;;;;;5095823;28;20487;-77
2021/12/08 01:59:45;;;;;;;0.60;0.60;;;3.00;99.90;;;;;;5097188;28;20044;-76
2021/12/08 02:02:11;;;;;;;3.35;2.58;;;3.00;99.90;;;;;;5097525;28;20040;-78
2021/12/08 02:04:37;;;;;;;0.70;0.70;;;3.00;99.90;;;;;;5097181;28;20048;-78
2021/12/08 02:07:03;;;;;;;0.70;0.70;;;3.00;99.90;;;;;;5097155;28;20373;-78
2021/12/08 02:09:29;;;;;;;0.77;0.77;;;3.00;99.90;;;;;;5097074;28;20048;-75
2021/12/08 02:11:56;;;;;;;0.60;0.60;;;3.00;99.90;;;;;;5097038;28;20048;-78
2021/12/08 02:14:22;;;;;;;0.60;0.60;;;3.00;99.90;;;;;;5096935;28;20044;-78
2021/12/08 02:16:51;;;;;;;0.70;0.70;;;3.00;99.90;;;;;;5097031;28;20056;-77
2021/12/08 02:19:17;;;;;;;2.40;2.25;;;3.10;99.90;;;;;;5096731;28;20101;-77
2021/12/08 02:21:43;;;;;;;0.60;0.60;;;3.10;99.90;;;;;;5095813;28;20032;-77
2021/12/08 02:24:12;;;;;;;0.60;0.60;;;3.10;99.90;;;;;;5096792;28;20051;-79
2021/12/08 02:26:40;;;;;;;0.60;0.60;;;3.10;99.90;;;;;;5096718;28;20494;-76
2021/12/08 02:29:11;;;;;;;1.60;1.00;;;3.10;99.90;;;;;;5095466;28;20040;-78
2021/12/08 02:47:53;;;;;;;0.70;0.70;;;3.10;99.90;;;;;;5095408;28;20048;-77
2021/12/08 02:50:31;;;;;;;0.60;0.60;;;3.20;99.90;;;;;;5096681;28;20430;-79
2021/12/08 02:52:59;;;;;;;5.25;2.35;;;3.20;99.90;;;;;;5096332;28;20075;-75
2021/12/08 02:55:27;;;;;;;0.70;0.70;;;3.20;99.90;;;;;;5095237;28;20047;-79
2021/12/08 02:57:53;;;;;;;0.60;0.60;;;3.20;99.90;;;;;;5096131;28;20101;-80
2021/12/08 03:00:24;;;;;;;0.60;0.60;;;3.20;99.90;;;;;;5096104;28;20123;-78
2021/12/08 03:02:51;;;;;;;0.68;0.68;;;3.20;99.90;;;;;;5095845;28;20540;-81
2021/12/08 03:05:17;;;;;;;0.60;0.60;;;3.30;99.90;;;;;;5096050;28;20050;-77
2021/12/08 03:07:43;;;;;;;0.60;0.60;;;3.30;99.90;;;;;;5095977;28;20044;-76
2021/12/08 03:10:14;;;;;;;0.60;0.60;;;2.70;99.90;;;;;;5095916;28;20141;-80
2021/12/08 03:12:40;;;;;;;0.60;0.60;;;3.30;99.90;;;;;;5096045;28;20136;-79
2021/12/08 03:15:07;;;;;;;0.67;0.67;;;3.40;99.90;;;;;;5096148;28;20044;-78
2021/12/08 03:17:34;;;;;;;0.90;0.80;;;3.40;99.90;;;;;;5095841;28;20309;-76
2021/12/08 03:20:01;;;;;;;0.60;0.60;;;3.40;99.90;;;;;;5095687;28;20051;-78
2021/12/08 03:22:27;;;;;;;0.60;0.60;;;3.50;99.90;;;;;;5095755;28;20048;-79
2021/12/08 03:24:53;;;;;;;0.60;0.60;;;3.50;99.90;;;;;;5094601;28;20078;-80
2021/12/08 03:27:26;;;;;;;0.60;0.60;;;3.50;99.90;;;;;;5095556;28;20131;-78
2021/12/08 03:29:59;;;;;;;0.60;0.60;;;3.50;99.90;;;;;;5096009;28;20123;-80
2021/12/08 03:32:34;;;;;;;0.60;0.60;;;3.60;99.90;;;;;;5095358;28;20483;-78
2021/12/08 03:35:00;;;;;;;0.70;0.70;;;3.60;99.90;;;;;;5095461;28;20048;-77
2021/12/08 03:37:32;;;;;;;0.60;0.60;;;3.60;99.90;;;;;;5095351;28;20405;-77
2021/12/08 03:40:00;;;;;;;0.60;0.60;;;3.60;99.90;;;;;;5095669;28;20044;-78
2021/12/08 03:42:28;;;;;;;0.70;0.70;;;3.60;99.90;;;;;;5095287;28;20048;-78
2021/12/08 03:44:56;;;;;;;0.60;0.60;;;3.60;99.90;;;;;;5095283;28;20044;-81
2021/12/08 03:47:28;;;;;;;0.60;0.60;;;3.60;99.90;;;;;;5095316;28;20048;-75
2021/12/08 03:49:59;;;;;;;1.10;1.00;;;3.70;99.90;;;;;;5095113;28;20127;-79
2021/12/08 03:52:26;;;;;;;0.60;0.60;;;3.60;99.90;;;;;;5095120;28;20097;-76
2021/12/08 03:54:51;;;;;;;0.95;0.85;;;3.70;99.90;;;;;;5095040;28;20105;-80
2021/12/08 03:57:17;;;;;;;0.60;0.60;;;3.70;99.90;;;;;;5095291;28;20040;-80
2021/12/08 03:59:43;;;;;;;0.70;0.70;;;3.70;99.90;;;;;;5094901;28;20548;-80
2021/12/08 04:02:09;;;;;;;0.60;0.60;;;3.80;99.90;;;;;;5094945;28;20048;-78
2021/12/08 04:04:43;;;;;;;0.70;0.70;;;3.80;99.90;;;;;;5094834;28;20400;-80
2021/12/08 04:07:11;;;;;;;0.60;0.60;;;3.80;99.90;;;;;;5094873;28;20083;-77
2021/12/08 04:09:40;;;;;;;0.60;0.60;;;3.80;99.90;;;;;;5095053;28;20075;-78
2021/12/08 04:12:08;;;;;;;0.85;0.82;;;3.90;99.90;;;;;;5094726;28;20408;-80
2021/12/08 04:14:44;;;;;;;0.60;0.60;;;3.90;99.90;;;;;;5094389;28;20093;-79
2021/12/08 04:17:21;;;;;;;0.77;0.77;;;3.90;99.90;;;;;;5094691;28;20446;-75
2021/12/08 04:19:47;;;;;;;;;;;3.90;99.90;;;;;;5095002;28;20101;-77
2021/12/08 04:22:19;;;;;;;0.80;0.80;;;3.90;99.90;;;;;;5094585;28;20381;-79
2021/12/08 04:24:46;;;;;;;0.90;0.90;;;3.90;99.90;;;;;;5094281;28;20488;-75
2021/12/08 04:27:19;;;;;;;0.70;0.70;;;4.00;99.90;;;;;;5094385;28;20055;-75
2021/12/08 04:29:48;;;;;;;0.60;0.60;;;4.00;99.90;;;;;;5094409;28;20058;-74
2021/12/08 04:32:16;;;;;;;0.60;0.60;;;4.10;99.90;;;;;;5094337;28;20047;-80
2021/12/08 04:34:45;;;;;;;0.60;0.60;;;4.00;99.90;;;;;;5094373;28;20044;-79
2021/12/08 04:37:20;;;;;;;0.60;0.60;;;4.10;99.90;;;;;;5094264;28;20058;-77
2021/12/08 04:40:16;;;;;;;0.50;0.50;;;4.10;99.90;;;;;;5094287;28;20087;-79
2021/12/08 04:42:56;;;;;;;0.60;0.60;;;4.20;99.90;;;;;;5094241;28;20036;-78
2021/12/08 04:45:35;;;;;;;0.50;0.50;;;4.20;99.90;;;;;;5094475;28;20063;-74
2021/12/08 04:53:41;;;;;;;0.60;0.60;;;4.20;99.90;;;;;;5094053;28;20049;-78
2021/12/08 05:00:23;;;;;;;0.55;0.55;;;4.30;99.90;;;;;;5093832;28;20044;-80
2021/12/08 05:07:52;;;;;;;0.60;0.60;;;4.60;99.90;;;;;;5054842;28;20550;-79
2021/12/08 05:10:33;;;;;;;0.50;0.50;;;4.30;99.90;;;;;;5071302;28;20060;-79
2021/12/08 05:13:00;;;;;;;0.60;0.60;;;4.30;99.90;;;;;;5085771;28;20559;-78
2021/12/08 05:15:25;;;;;;;;;;;4.30;99.90;;;;;;5093088;28;20086;-79
2021/12/08 05:18:34;;;;;;;0.60;0.60;;;4.30;99.90;;;;;;5094145;28;19967;-76
2021/12/08 05:21:11;;;;;;;0.60;0.60;;;4.30;99.90;;;;;;5054901;28;20071;-75
2021/12/08 05:23:49;;;;;;;0.60;0.60;;;4.40;99.90;;;;;;5093892;28;20044;-76
2021/12/08 05:26:24;;;;;;;0.52;0.52;;;4.40;99.90;;;;;;5093474;28;20495;-79
2021/12/08 05:28:52;;;;;;;1.17;0.77;;;4.90;99.90;;;;;;5097339;28;20091;-76
2021/12/08 05:31:24;;;;;;;0.60;0.60;;;4.40;99.90;;;;;;5097831;28;20040;-81
2021/12/08 05:33:52;;;;;;;0.60;0.60;;;4.40;99.90;;;;;;5096778;28;20138;-76
2021/12/08 05:36:18;;;;;;;0.60;0.60;;;4.40;99.90;;;;;;5096764;28;20044;-74
2021/12/08 05:38:43;;;;;;;0.60;0.60;;;4.40;99.90;;;;;;5097724;28;20044;-78
2021/12/08 05:41:26;;;;;;;0.60;0.60;;;4.50;99.90;;;;;;5097851;28;20043;-77
2021/12/08 05:43:52;;;;;;;0.70;0.70;;;4.40;99.90;;;;;;5097917;28;20127;-80
2021/12/08 05:46:20;;;;;;;0.60;0.60;;;4.40;99.90;;;;;;5096930;28;20448;-81
2021/12/08 05:48:48;;;;;;;0.52;0.52;;;4.40;99.90;;;;;;5097406;28;20484;-77
2021/12/08 05:51:17;;;;;;;0.60;0.60;;;4.50;99.90;;;;;;5096180;28;20051;-80
2021/12/08 05:53:47;;;;;;;1.05;1.00;;;4.40;99.90;;;;;;5097341;28;20081;-78
2021/12/08 05:56:13;;;;;;;0.60;0.60;;;4.60;99.90;;;;;;5097257;28;20130;-82
2021/12/08 05:58:40;;;;;;;0.60;0.60;;;4.40;99.90;;;;;;5097371;28;20039;-80
2021/12/08 06:01:17;;;;;;;0.60;0.60;;;4.40;99.90;;;;;;5097238;28;20408;-75
2021/12/08 06:03:43;;;;;;;0.82;0.82;;;4.40;99.90;;;;;;5097226;28;20040;-78
2021/12/08 06:06:10;;;;;;;0.50;0.50;;;4.50;99.90;;;;;;5097148;28;20048;-79
2021/12/08 06:08:37;;;;;;;;;;;4.40;99.90;;;;;;5097923;28;20044;-79
2021/12/08 06:11:04;;;;;;;0.60;0.60;;;4.50;99.90;;;;;;5095953;28;19920;-79
2021/12/08 06:13:30;;;;;;;0.70;0.70;;;4.50;99.90;;;;;;5097214;28;20117;-78
2021/12/08 06:15:56;;;;;;;0.60;0.60;;;4.40;99.90;;;;;;5096867;28;20052;-79
2021/12/08 06:18:26;;;;;;;0.60;0.60;;;4.20;99.90;;;;;;5096972;28;20052;-80
2021/12/08 06:20:55;;;;;;;0.60;0.60;;;4.40;99.90;;;;;;5079421;28;20047;-78
2021/12/08 06:23:21;;;;;;;0.60;0.60;;;4.40;99.90;;;;;;5096847;28;20048;-81
2021/12/08 06:25:47;;;;;;;1.00;1.00;;;4.40;99.90;;;;;;5095896;28;20039;-76
2021/12/08 06:28:13;;;;;;;0.70;0.70;;;4.40;99.90;;;;;;5096825;28;20047;-82
2021/12/08 06:30:45;;;;;;;0.80;0.80;;;4.40;99.90;;;;;;5096744;28;20043;-82
2021/12/08 06:33:13;;;;;;;0.90;0.90;;;4.50;99.90;;;;;;5096296;28;20487;-79
2021/12/08 06:35:43;;;;;;;0.73;0.73;;;4.50;99.90;;;;;;5096599;28;20048;-80
2021/12/08 06:38:10;;;;;;;0.60;0.60;;;4.50;99.90;;;;;;5096049;28;20048;-78
2021/12/08 06:41:05;;;;;;;0.85;0.85;;;4.50;99.90;;;;;;5095446;28;20044;-80
2021/12/08 06:43:37;;;;;;;0.77;0.77;;;4.50;99.90;;;;;;5092372;28;20048;-78
2021/12/08 06:46:04;;;;;;;0.60;0.60;;;4.50;99.90;;;;;;5096980;28;20071;-76
2021/12/08 06:48:37;;;;;;;4.25;3.50;;;4.50;99.90;;;;;;5096407;28;20079;-77
2021/12/08 06:51:29;;;;;;;0.70;0.70;;;4.60;99.90;;;;;;5096347;28;20472;-78
2021/12/08 06:54:00;;;;;;;0.60;0.60;;;4.60;99.90;;;;;;5096330;28;20051;-78
2021/12/08 06:56:34;;;;;;;1.05;0.98;;;4.60;99.90;;;;;;5096716;28;20040;-78
2021/12/08 06:59:04;;;;;;;1.17;1.08;;;4.60;99.90;;;;;;5094830;28;20530;-78
2021/12/08 07:01:46;;;;;;;0.60;0.60;;;4.60;99.90;;;;;;5096284;28;20036;-78
2021/12/08 07:06:59;;;;;;;0.60;0.60;;;4.60;99.90;;;;;;5096186;28;20055;-79
2021/12/08 07:09:47;;;;;;;0.60;0.60;;;4.70;99.90;;;;;;5096227;28;20062;-78
2021/12/08 07:12:18;;;;;;;0.50;0.50;;;4.70;99.90;;;;;;5094717;28;20047;-79
2021/12/08 07:14:48;;;;;;;0.60;0.60;;;4.70;99.90;;;;;;5095783;28;20190;-79
2021/12/08 07:17:20;;;;;;;1.98;1.50;;;4.70;99.90;;;;;;5095462;28;20048;-79
2021/12/08 07:19:51;;;;;;;0.50;0.50;;;4.80;99.90;;;;;;5095277;28;20110;-80
2021/12/08 07:22:25;;;;;;;0.60;0.60;;;4.80;99.90;;;;;;5094625;28;20133;-80
2021/12/08 07:24:53;;;;;;;1.58;1.35;;;4.90;99.90;;;;;;5095601;28;20141;-80
2021/12/08 07:27:27;;;;;;;0.55;0.55;;;4.90;99.90;;;;;;5095101;28;20044;-78
2021/12/08 07:29:55;;;;;;;0.50;0.50;;;4.90;99.90;;;;;;5095088;28;20032;-83
2021/12/08 07:32:31;;;;;;;25.83;2.15;;;5.00;99.90;;;;;;5095474;28;20438;-79
2021/12/08 07:34:59;;;;;;;0.50;0.50;;;5.00;99.90;;;;;;5095480;28;20488;-80
2021/12/08 07:37:30;;;;;;;0.50;0.50;;;5.00;99.90;;;;;;5095382;28;20056;-80
2021/12/08 07:40:20;;;;;;;0.80;0.80;;;4.90;99.90;;;;;;5095265;28;20048;-80
2021/12/08 07:42:52;;;;;;;2.25;2.15;;;4.90;99.90;;;;;;5095382;28;20048;-80
2021/12/08 07:45:22;;;;;;;0.60;0.60;;;4.90;99.90;;;;;;5095250;28;20044;-81
2021/12/08 07:47:53;;;;;;;0.50;0.50;;;5.10;99.90;;;;;;5095259;28;20047;-78
2021/12/08 07:50:29;;;;;;;0.70;0.70;;;5.00;99.90;;;;;;5094360;28;20048;-78
2021/12/08 07:52:57;;;;;;;0.70;0.70;;;4.90;99.90;;;;;;5095143;28;20101;-80
2021/12/08 07:55:30;;;;;;;0.80;0.80;;;4.90;99.90;;;;;;5095083;28;20052;-78
2021/12/08 07:57:56;;;;;;;0.50;0.50;;;4.90;99.90;;;;;;5095015;28;20052;-79
2021/12/08 08:00:40;;;;;;;0.50;0.50;;;4.90;99.90;;;;;;5094871;28;20071;-82
2021/12/08 08:03:08;;;;;;;0.60;0.60;;;5.00;99.90;;;;;;5094923;28;20385;-78
2021/12/08 08:05:35;;;;;;;0.60;0.60;;;5.00;99.90;;;;;;5094929;28;20077;-80
2021/12/08 08:08:05;;;;;;;1.15;0.95;;;4.90;99.90;;;;;;5094879;28;20407;-77
2021/12/08 08:10:35;;;;;;;0.60;0.60;;;4.90;99.90;;;;;;5094604;28;20079;-81
2021/12/08 08:13:02;;;;;;;0.70;0.70;;;4.90;99.90;;;;;;5094805;28;20505;-79
2021/12/08 08:15:31;;;;;;;0.50;0.50;;;4.10;99.90;;;;;;5093706;28;20054;-81
2021/12/08 08:18:00;;;;;;;0.50;0.50;;;4.80;99.90;;;;;;5093501;28;20091;-79
2021/12/08 08:20:32;;;;;;;1.00;0.90;;;4.80;99.90;;;;;;5094481;28;20070;-79
2021/12/08 08:22:59;;;;;;;0.60;0.60;;;4.80;99.90;;;;;;5093786;28;20189;-78
2021/12/08 08:25:30;;;;;;;0.60;0.60;;;4.80;99.90;;;;;;5094503;28;20487;-79
2021/12/08 08:27:56;;;;;;;0.50;0.50;;;4.80;99.90;;;;;;5094596;28;20043;-76
2021/12/08 08:30:25;;;;;;;0.50;0.50;;;4.90;99.90;;;;;;5094469;28;20044;-80
2021/12/08 08:32:55;;;;;;;0.60;0.60;;;5.30;99.90;;;;;;5093203;28;20044;-81
2021/12/08 08:35:29;;;;;;;1.13;1.13;;;4.90;99.90;;;;;;5094374;28;20090;-80
2021/12/08 08:37:54;;;;;;;0.50;0.50;;;4.90;99.90;;;;;;5094351;28;20048;-80
2021/12/08 08:40:46;;;;;;;0.50;0.50;;;4.90;99.90;;;;;;5093168;28;20454;-79
2021/12/08 08:43:17;;;;;;;0.50;0.50;;;5.00;99.90;;;;;;5084687;28;20056;-80
2021/12/08 08:45:55;;;;;;;0.50;0.50;;;5.00;99.90;;;;;;5093861;28;20039;-79
2021/12/08 08:48:31;;;;;;;0.60;0.60;;;5.00;99.90;;;;;;5094192;28;20070;-79
2021/12/08 08:51:02;;;;;;;0.50;0.50;;;5.00;99.90;;;;;;5092853;28;20036;-78
2021/12/08 08:53:32;;;;;;;0.60;0.60;;;5.00;99.90;;;;;;5094514;28;20044;-80
2021/12/08 08:56:04;;;;;;;0.57;0.57;;;5.00;99.90;;;;;;5094462;28;20044;-80
2021/12/08 08:58:33;;;;;;;0.50;0.50;;;5.00;99.90;;;;;;5076562;28;20422;-78
2021/12/08 09:00:58;;;;;;;0.60;0.60;;;5.00;99.90;;;;;;5093666;28;20047;-79
2021/12/08 09:03:27;;;;;;;0.50;0.50;;;5.10;99.90;;;;;;5093831;28;20052;-80
2021/12/08 09:06:06;;;;;;;0.50;0.50;;;5.10;99.90;;;;;;5093536;28;20104;-79
2021/12/08 09:08:34;;;;;;;0.60;0.60;;;5.10;99.90;;;;;;5094170;28;20051;-79
2021/12/08 09:11:16;;;;;;;0.60;0.60;;;5.10;99.90;;;;;;5093821;28;20048;-82
2021/12/08 09:13:54;;;;;;;0.50;0.50;;;5.20;99.90;;;;;;5093896;28;20040;-75
2021/12/08 09:16:31;;;;;;;0.60;0.60;;;5.20;99.90;;;;;;5092875;28;20153;-79
2021/12/08 09:19:10;;;;;;;1.63;1.57;;;5.30;99.90;;;;;;5093440;28;20070;-78
2021/12/08 09:21:54;;;;;;;0.50;0.50;;;5.40;99.90;;;;;;5093975;28;20059;-77
2021/12/08 09:24:26;;;;;;;0.50;0.50;;;5.50;99.90;;;;;;5093819;28;20123;-79
2021/12/08 09:26:57;;;;;;;0.60;0.60;;;5.60;99.90;;;;;;5094171;28;20052;-80
2021/12/08 09:29:43;;;;;;;5.07;3.70;;;5.60;99.90;;;;;;5094519;28;20127;-82
2021/12/08 09:32:49;;;;;;;0.50;0.50;;;5.70;99.90;;;;;;5093648;28;20044;-80
2021/12/08 09:35:46;;;;;;;0.50;0.50;;;5.60;99.90;;;;;;5011505;28;20054;-81
2021/12/08 09:38:42;;;;;;;0.50;0.50;;;5.60;99.90;;;;;;5005928;28;20434;-79
2021/12/08 09:41:11;;;;;;;0.50;0.50;;;5.60;99.90;;;;;;5083766;28;20098;-83
2021/12/08 09:43:45;;;;;;;0.70;0.70;;;5.60;99.90;;;;;;5092730;28;20051;-81
2021/12/08 09:46:15;;;;;;;0.60;0.60;;;5.60;99.90;;;;;;5093715;28;20040;-79
2021/12/08 09:48:44;;;;;;;0.50;0.50;;;5.60;99.90;;;;;;5092432;28;20066;-78
2021/12/08 09:51:12;;;;;;;0.50;0.50;;;5.60;99.90;;;;;;5092394;28;20119;-79
2021/12/08 09:53:38;;;;;;;0.60;0.60;;;5.60;99.90;;;;;;5093299;28;20044;-81
2021/12/08 09:56:05;;;;;;;0.60;0.60;;;5.60;99.90;;;;;;5076464;28;20510;-78
2021/12/08 09:58:30;;;;;;;0.60;0.60;;;5.60;99.90;;;;;;5093593;28;20044;-82
2021/12/08 10:00:59;;;;;;;0.60;0.60;;;5.60;99.90;;;;;;5093322;28;20093;-80
2021/12/08 10:03:25;;;;;;;0.50;0.50;;;5.70;99.90;;;;;;5093358;28;20059;-82
2021/12/08 10:05:51;;;;;;;0.75;0.75;;;5.70;99.90;;;;;;5094006;28;20044;-80
2021/12/08 10:08:18;;;;;;;0.50;0.50;;;5.70;99.90;;;;;;5092379;28;20129;-82
2021/12/08 10:10:45;;;;;;;0.50;0.50;;;5.70;99.90;;;;;;5093003;28;20910;-80
2021/12/08 10:13:11;;;;;;;0.50;0.50;;;5.80;99.90;;;;;;5092784;28;20044;-80
2021/12/08 10:15:38;;;;;;;0.55;0.55;;;5.80;99.90;;;;;;5096980;28;20498;-83
2021/12/08 10:18:05;;;;;;;0.70;0.70;;;5.90;99.90;;;;;;5097069;28;20147;-82
2021/12/08 10:20:39;;;;;;;0.50;0.50;;;5.90;99.90;;;;;;5095735;28;20044;-82
2021/12/08 10:23:23;;;;;;;0.57;0.57;;;6.00;99.90;;;;;;5095847;28;20373;-81
2021/12/08 10:25:57;;;;;;;0.60;0.60;;;6.00;99.90;;;;;;5096432;28;20050;-83
2021/12/08 10:28:45;;;;;;;0.63;0.63;;;6.00;99.90;;;;;;5096786;28;20090;-78
2021/12/08 10:31:25;;;;;;;0.50;0.50;;;6.10;99.90;;;;;;5096795;28;20036;-81
2021/12/08 10:34:01;;;;;;;0.50;0.50;;;6.10;99.90;;;;;;5096834;28;20407;-81
2021/12/08 10:36:45;;;;;;;0.50;0.50;;;6.00;99.90;;;;;;5095683;28;20040;-81
2021/12/08 10:39:18;;;;;;;0.40;0.40;;;6.00;99.90;;;;;;5096723;28;20092;-82
2021/12/08 10:41:50;;;;;;;0.50;0.50;;;6.00;99.90;;;;;;5096449;28;20094;-80
2021/12/08 10:44:21;;;;;;;0.50;0.50;;;5.80;99.90;;;;;;5096582;28;20086;-82
2021/12/08 10:46:51;;;;;;;0.60;0.60;;;5.80;99.90;;;;;;5096838;28;20040;-77
2021/12/08 10:49:24;;;;;;;0.60;0.60;;;5.90;99.90;;;;;;5096359;28;20112;-81
2021/12/08 10:54:36;;;;;;;0.82;0.82;;;6.00;99.90;;;;;;5096761;28;20131;-80
2021/12/08 10:57:19;;;;;;;1.00;0.95;;;6.00;99.90;;;;;;5078391;28;20040;-80
2021/12/08 10:59:59;;;;;;;0.50;0.50;;;6.10;99.90;;;;;;5095033;28;20479;-79
2021/12/08 11:02:48;;;;;;;0.60;0.60;;;6.00;99.90;;;;;;5096035;28;20592;-76
2021/12/08 11:05:25;;;;;;;0.70;0.60;;;5.50;99.90;;;;;;5096125;28;20105;-77
2021/12/08 11:07:59;;;;;;;;;;;6.00;99.90;;;;;;5095505;28;20051;-78
2021/12/08 11:10:24;;;;;;;0.50;0.50;;;6.00;99.90;;;;;;5096188;28;20010;-80
2021/12/08 11:12:50;;;;;;;0.60;0.60;;;6.30;99.90;;;;;;5094684;28;20127;-78
2021/12/08 11:15:22;;;;;;;0.80;0.80;;;6.00;99.90;;;;;;5094589;28;20051;-78
2021/12/08 11:17:48;;;;;;;0.50;0.50;;;6.10;99.90;;;;;;5094487;28;20083;-79
2021/12/08 11:20:31;;;;;;;0.50;0.50;;;6.10;99.90;;;;;;5098360;28;20131;-82
2021/12/08 11:23:02;;;;;;;0.50;0.50;;;6.00;99.90;;;;;;5095830;28;20472;-80
2021/12/08 11:25:47;;;;;;;0.50;0.50;;;6.00;99.90;;;;;;5095568;28;20131;-82
2021/12/08 11:28:30;;;;;;;0.50;0.50;;;6.00;99.90;;;;;;5095448;28;20480;-78
2021/12/08 11:31:06;;;;;;;0.50;0.50;;;5.80;99.90;;;;;;5094388;28;20376;-79
2021/12/08 11:33:32;;;;;;;0.50;0.50;;;5.80;99.90;;;;;;5094838;28;20144;-80
2021/12/08 11:36:21;;;;;;;0.60;0.60;;;5.90;99.90;;;;;;5095445;28;20104;-78
2021/12/08 11:38:49;;;;;;;0.77;0.77;;;5.90;99.90;;;;;;5094275;28;20044;-80
2021/12/08 11:41:47;;;;;;;0.50;0.50;;;5.90;99.90;;;;;;5094265;28;20054;-79
2021/12/08 11:44:19;;;;;;;0.50;0.50;;;6.00;99.90;;;;;;5058899;28;20052;-77
2021/12/08 11:46:51;;;;;;;0.50;0.50;;;6.00;99.90;;;;;;5095854;28;20052;-80
2021/12/08 11:49:18;;;;;;;0.50;0.50;;;6.20;99.90;;;;;;5078106;28;20040;-77
2021/12/08 11:51:44;;;;;;;0.70;0.70;;;6.10;99.90;;;;;;5094222;28;20044;-81
2021/12/08 11:54:30;;;;;;;0.60;0.60;;;6.10;99.90;;;;;;5095438;28;20138;-79
2021/12/08 11:57:12;;;;;;;0.60;0.60;;;6.10;99.90;;;;;;5093839;28;20123;-78
2021/12/08 11:59:46;;;;;;;0.60;0.60;;;6.10;99.90;;;;;;5094980;28;20083;-78
2021/12/08 12:02:15;;;;;;;0.60;0.60;;;6.10;99.90;;;;;;5095015;28;20081;-78
2021/12/08 12:04:42;;;;;;;0.50;0.50;;;6.10;99.90;;;;;;5094112;28;20048;-79
2021/12/08 12:07:13;;;;;;;0.50;0.50;;;6.10;99.90;;;;;;5093687;28;20040;-76
2021/12/08 12:09:40;;;;;;;0.50;0.50;;;6.10;99.90;;;;;;5092024;28;20392;-76
2021/12/08 12:12:07;;;;;;;0.50;0.50;;;6.10;99.90;;;;;;5089822;28;20055;-76
2021/12/08 12:14:32;;;;;;;0.60;0.60;;;6.10;99.90;;;;;;5074474;28;20130;-80
2021/12/08 12:16:59;;;;;;;0.60;0.60;;;6.10;99.90;;;;;;5072853;28;20086;-78
2021/12/08 12:19:30;;;;;;;0.50;0.50;;;6.10;99.90;;;;;;5072893;28;20045;-78
2021/12/08 12:22:19;;;;;;;0.52;0.52;;;6.10;99.90;;;;;;5072846;28;20037;-81
2021/12/08 12:25:04;;;;;;;0.80;0.80;;;6.10;99.90;;;;;;5072925;28;20515;-78
2021/12/08 12:28:03;;;;;;;0.65;0.65;;;6.10;99.90;;;;;;5072405;28;20485;-80
2021/12/08 12:30:37;;;;;;;0.70;0.70;;;6.10;99.90;;;;;;5055848;28;20040;-81
2021/12/08 12:33:18;;;;;;;0.60;0.60;;;6.10;99.90;;;;;;5056642;28;20076;-76
2021/12/08 12:35:49;;;;;;;0.50;0.50;;;6.10;99.90;;;;;;5072468;28;20045;-80
2021/12/08 12:38:15;;;;;;;0.50;0.50;;;6.10;99.90;;;;;;5074112;28;20090;-79
2021/12/08 12:40:46;;;;;;;0.50;0.50;;;6.10;99.90;;;;;;5072440;28;20133;-79
2021/12/08 12:43:26;;;;;;;0.60;0.60;;;6.10;99.90;;;;;;5073810;28;20048;-80
2021/12/08 12:46:04;;;;;;;0.50;0.50;;;6.10;99.90;;;;;;5073669;28;20122;-78
2021/12/08 12:48:31;;;;;;;0.60;0.60;;;6.10;99.90;;;;;;5073560;28;20045;-78
2021/12/08 12:51:01;;;;;;;;;;;6.10;99.90;;;;;;5074122;28;20037;-78
2021/12/08 12:53:33;;;;;;;0.60;0.60;;;6.10;99.90;;;;;;5072691;28;19920;-77
2021/12/08 12:55:58;;;;;;;0.50;0.50;;;6.10;99.90;;;;;;5072441;28;20048;-79
2021/12/08 12:58:48;;;;;;;0.60;0.60;;;6.10;99.90;;;;;;5072508;28;20146;-78
2021/12/08 13:01:17;;;;;;;0.80;0.80;;;6.00;99.90;;;;;;5073261;28;20519;-80
2021/12/08 13:03:50;;;;;;;0.60;0.60;;;6.10;99.90;;;;;;5072283;28;20098;-77
2021/12/08 13:06:37;;;;;;;0.50;0.50;;;6.00;99.90;;;;;;5073543;28;20044;-79
2021/12/08 13:09:04;;;;;;;0.50;0.50;;;6.10;99.90;;;;;;5073452;28;20412;-81
2021/12/08 13:11:35;;;;;;;0.60;0.60;;;6.00;99.90;;;;;;5071980;28;20053;-75
2021/12/08 13:14:03;;;;;;;1.02;0.98;;;6.10;99.90;;;;;;5073435;28;20491;-77
2021/12/08 13:16:35;;;;;;;0.50;0.50;;;6.00;99.90;;;;;;5055625;28;20435;-81
2021/12/08 13:19:04;;;;;;;0.50;0.50;;;6.10;99.90;;;;;;5073420;28;20136;-78
2021/12/08 13:21:44;;;;;;;0.85;0.77;;;6.10;99.90;;;;;;5073367;28;20041;-80
2021/12/08 13:24:31;;;;;;;0.50;0.50;;;6.10;99.90;;;;;;5073147;28;20040;-79
2021/12/08 13:27:06;;;;;;;0.77;0.60;;;6.10;99.90;;;;;;5072179;28;20071;-79
2021/12/08 13:29:35;;;;;;;0.50;0.50;;;6.20;99.90;;;;;;5073390;28;20045;-79
2021/12/08 13:32:11;;;;;;;0.50;0.50;;;6.20;99.90;;;;;;5072040;28;20041;-78
2021/12/08 13:34:39;;;;;;;0.50;0.50;;;6.20;99.90;;;;;;5073416;28;20388;-79
2021/12/08 13:37:23;;;;;;;0.57;0.57;;;6.20;99.90;;;;;;5072243;28;20045;-77
2021/12/08 13:39:52;;;;;;;0.50;0.50;;;6.20;99.90;;;;;;5073293;28;20052;-76
2021/12/08 13:42:28;;;;;;;0.60;0.60;;;6.30;99.90;;;;;;5073203;28;20063;-75
2021/12/08 13:44:57;;;;;;;0.50;0.50;;;6.20;99.90;;;;;;5073257;28;20546;-76
2021/12/08 13:47:28;;;;;;;0.50;0.50;;;6.20;99.90;;;;;;5073120;28;20091;-75
2021/12/08 13:50:08;;;;;;;1.65;1.55;;;6.20;99.90;;;;;;5075187;28;20504;-74
2021/12/08 13:52:36;;;;;;;0.93;0.80;;;6.20;99.90;;;;;;5077130;28;20041;-80
2021/12/08 13:55:17;;;;;;;0.50;0.50;;;6.20;99.90;;;;;;5075907;28;20094;-78
2021/12/08 13:57:52;;;;;;;0.50;0.50;;;6.20;99.90;;;;;;5075709;28;20084;-77
2021/12/08 14:00:17;;;;;;;0.65;0.65;;;6.20;99.90;;;;;;5076614;28;20127;-78
2021/12/08 14:03:02;;;;;;;0.50;0.50;;;6.20;99.90;;;;;;5075928;28;20087;-74